createdAt,value
2022-12-28T00:02:19.399Z,5.30
2022-12-28T00:04:47.063Z,5.33
2022-12-28T00:07:14.657Z,5.33
2022-12-28T00:09:42.142Z,5.30
2022-12-28T00:12:10.968Z,5.31
2022-12-28T00:14:38.463Z,5.35
2022-12-28T00:17:05.959Z,5.30
2022-12-28T00:19:33.452Z,5.31
2022-12-28T00:22:00.973Z,5.34
2022-12-28T00:24:28.397Z,5.32
2022-12-28T00:26:56.912Z,5.34
2022-12-28T00:29:25.781Z,5.36
2022-12-28T00:31:53.379Z,5.37
2022-12-28T00:34:20.833Z,5.39
2022-12-28T00:37:10.804Z,5.38
2022-12-28T00:39:38.404Z,5.37
2022-12-28T00:42:05.921Z,5.41
2022-12-28T00:44:34.773Z,5.45
2022-12-28T00:47:02.160Z,5.45
2022-12-28T00:49:29.595Z,5.45
2022-12-28T00:51:57.092Z,5.48
2022-12-28T00:54:24.552Z,5.48
2022-12-28T00:56:52.091Z,5.54
2022-12-28T00:59:19.574Z,5.53
2022-12-28T01:01:48.489Z,5.55
2022-12-28T01:04:15.965Z,5.53
2022-12-28T01:06:43.552Z,5.53
2022-12-28T01:09:11.078Z,5.56
2022-12-28T01:11:38.579Z,5.56
2022-12-28T01:14:06.040Z,5.60
2022-12-28T01:16:35.078Z,5.63
2022-12-28T01:19:05.445Z,5.66
2022-12-28T01:21:33.959Z,5.70
2022-12-28T01:24:03.142Z,5.74
2022-12-28T01:26:31.014Z,5.84
2022-12-28T01:28:59.376Z,5.86
2022-12-28T01:31:27.512Z,5.90
2022-12-28T01:33:55.334Z,5.96
2022-12-28T01:36:24.853Z,5.97
2022-12-28T01:38:53.619Z,6.04
2022-12-28T01:41:21.272Z,6.10
2022-12-28T01:44:10.294Z,6.13
2022-12-28T01:46:39.332Z,6.19
2022-12-28T01:49:08.883Z,6.24
2022-12-28T01:51:42.995Z,6.26
2022-12-28T01:54:10.816Z,6.29
2022-12-28T01:56:38.831Z,6.30
2022-12-28T01:59:06.632Z,6.35
2022-12-28T02:01:34.202Z,6.38
2022-12-28T02:04:01.879Z,6.43
2022-12-28T02:06:30.312Z,6.45
2022-12-28T02:09:01.351Z,6.46
2022-12-28T02:11:29.184Z,6.44
2022-12-28T02:13:58.371Z,6.18
2022-12-28T02:16:25.808Z,6.50
2022-12-28T02:18:53.745Z,6.52
2022-12-28T02:21:25.327Z,6.50
2022-12-28T02:23:58.691Z,6.51
2022-12-28T02:26:43.114Z,6.50
2022-12-28T02:29:28.581Z,6.52
2022-12-28T02:32:01.392Z,6.50
2022-12-28T02:34:33.691Z,6.57
2022-12-28T02:37:02.582Z,6.54
2022-12-28T02:39:33.288Z,6.49
2022-12-28T02:42:01.015Z,6.50
2022-12-28T02:44:45.863Z,6.51
2022-12-28T02:47:33.613Z,6.57
2022-12-28T02:50:07.974Z,6.58
2022-12-28T02:52:56.913Z,6.50
2022-12-28T02:55:50.024Z,6.50
2022-12-28T02:58:26.255Z,6.51
2022-12-28T03:01:00.200Z,6.55
2022-12-28T03:03:34.024Z,6.56
2022-12-28T03:06:30.422Z,6.56
2022-12-28T03:09:03.611Z,6.53
2022-12-28T03:11:35.409Z,6.54
2022-12-28T03:14:04.670Z,6.53
2022-12-28T03:16:54.498Z,6.51
2022-12-28T03:19:42.767Z,6.50
2022-12-28T03:22:28.754Z,6.49
2022-12-28T03:25:14.919Z,6.50
2022-12-28T03:28:01.718Z,6.53
2022-12-28T03:30:48.654Z,6.54
2022-12-28T03:33:16.232Z,6.56
2022-12-28T03:35:46.992Z,6.60
2022-12-28T03:38:27.051Z,6.61
2022-12-28T03:40:57.273Z,6.64
2022-12-28T03:43:41.007Z,6.64
2022-12-28T03:46:11.180Z,6.68
2022-12-28T03:48:38.873Z,6.69
2022-12-28T03:51:07.907Z,6.71
2022-12-28T03:53:38.755Z,6.74
2022-12-28T03:56:07.073Z,6.80
2022-12-28T03:58:34.604Z,6.83
2022-12-28T04:01:02.145Z,6.85
2022-12-28T04:03:30.062Z,6.90
2022-12-28T04:05:57.663Z,6.94
2022-12-28T04:08:26.745Z,6.96
2022-12-28T04:10:54.437Z,6.73
2022-12-28T04:13:21.987Z,7.06
2022-12-28T04:15:59.345Z,7.13
2022-12-28T04:18:26.908Z,7.16
2022-12-28T04:20:54.720Z,7.22
2022-12-28T04:23:22.252Z,7.23
2022-12-28T04:26:01.167Z,7.31
2022-12-28T04:28:28.765Z,7.32
2022-12-28T04:30:56.446Z,7.38
2022-12-28T04:33:24.081Z,7.39
2022-12-28T04:35:51.565Z,7.38
2022-12-28T04:38:19.167Z,7.36
2022-12-28T04:40:46.851Z,7.37
2022-12-28T04:43:15.725Z,7.34
2022-12-28T04:45:43.160Z,7.34
2022-12-28T04:48:10.637Z,7.31
2022-12-28T04:50:38.206Z,7.32
2022-12-28T04:53:05.701Z,7.31
2022-12-28T04:55:35.144Z,7.36
2022-12-28T04:58:02.558Z,7.34
2022-12-28T05:00:31.440Z,7.38
2022-12-28T05:02:59.781Z,7.39
2022-12-28T05:05:27.497Z,7.43
2022-12-28T05:07:54.894Z,7.41
2022-12-28T05:10:22.604Z,7.46
2022-12-28T05:12:50.143Z,7.45
2022-12-28T05:15:17.597Z,7.46
2022-12-28T05:17:46.467Z,7.49
2022-12-28T05:20:13.921Z,7.49
2022-12-28T05:22:41.423Z,7.49
2022-12-28T05:25:09.281Z,7.54
2022-12-28T05:27:36.789Z,7.59
2022-12-28T05:30:04.481Z,7.60
2022-12-28T05:32:31.942Z,7.57
2022-12-28T05:35:00.794Z,7.60
2022-12-28T05:37:28.305Z,7.65
2022-12-28T05:39:56.571Z,7.66
2022-12-28T05:42:24.015Z,7.71
2022-12-28T05:44:51.475Z,7.70
2022-12-28T05:47:19.016Z,7.76
2022-12-28T05:49:47.467Z,7.77
2022-12-28T05:52:16.486Z,7.78
2022-12-28T05:54:45.545Z,7.77
2022-12-28T05:57:12.985Z,7.75
2022-12-28T05:59:40.479Z,7.77
2022-12-28T06:02:08.061Z,7.82
2022-12-28T06:04:35.709Z,7.86
2022-12-28T06:07:03.174Z,7.86
2022-12-28T06:09:33.063Z,7.87
2022-12-28T06:12:00.607Z,7.91
2022-12-28T06:14:28.058Z,7.90
2022-12-28T06:16:55.644Z,7.93
2022-12-28T06:19:23.157Z,7.94
2022-12-28T06:21:50.673Z,7.94
2022-12-28T06:24:18.919Z,7.96
2022-12-28T06:26:48.415Z,8.03
2022-12-28T06:29:15.896Z,8.02
2022-12-28T06:31:47.111Z,8.03
2022-12-28T06:34:14.726Z,8.08
2022-12-28T06:36:43.359Z,8.04
2022-12-28T06:39:12.148Z,8.03
2022-12-28T06:41:39.999Z,8.07
2022-12-28T06:44:09.226Z,8.07
2022-12-28T06:46:37.319Z,8.07
2022-12-28T06:49:04.863Z,8.05
2022-12-28T06:51:36.047Z,8.07
2022-12-28T06:54:03.561Z,8.11
2022-12-28T06:56:32.093Z,8.05
2022-12-28T06:59:03.460Z,8.09
2022-12-28T07:01:34.081Z,8.10
2022-12-28T07:04:02.563Z,8.07
2022-12-28T07:06:30.556Z,8.08
2022-12-28T07:09:00.217Z,8.08
2022-12-28T07:11:28.945Z,8.08
2022-12-28T07:13:56.969Z,7.98
2022-12-28T07:16:25.163Z,8.14
2022-12-28T07:18:54.510Z,8.06
2022-12-28T07:21:22.999Z,8.04
2022-12-28T07:23:50.962Z,8.01
2022-12-28T07:26:20.464Z,7.99
2022-12-28T07:28:48.555Z,7.98
2022-12-28T07:31:17.599Z,8.04
2022-12-28T07:33:45.355Z,8.04
2022-12-28T07:36:15.557Z,8.00
2022-12-28T07:38:43.644Z,8.05
2022-12-28T07:41:12.507Z,8.07
2022-12-28T07:43:40.325Z,8.12
2022-12-28T07:46:09.036Z,8.17
2022-12-28T07:48:37.089Z,8.18
2022-12-28T07:51:08.566Z,8.18
2022-12-28T07:53:37.428Z,8.20
2022-12-28T07:56:05.478Z,8.21
2022-12-28T07:58:33.110Z,8.24
2022-12-28T08:01:08.204Z,8.26
2022-12-28T08:03:36.252Z,8.25
2022-12-28T08:06:04.849Z,8.27
2022-12-28T08:08:32.499Z,8.28
2022-12-28T08:11:04.435Z,8.28
2022-12-28T08:13:32.918Z,8.28
2022-12-28T08:16:00.544Z,8.30
2022-12-28T08:18:28.073Z,8.32
2022-12-28T08:20:55.720Z,8.33
2022-12-28T08:23:23.203Z,8.33
2022-12-28T08:25:50.662Z,8.29
2022-12-28T08:28:19.545Z,8.33
2022-12-28T08:30:47.135Z,8.38
2022-12-28T08:33:14.680Z,8.40
2022-12-28T08:35:42.288Z,8.32
2022-12-28T08:38:09.819Z,8.38
2022-12-28T08:40:37.245Z,8.36
2022-12-28T08:43:04.914Z,8.42
2022-12-28T08:45:33.909Z,8.47
2022-12-28T08:48:01.448Z,8.47
2022-12-28T08:50:31.755Z,8.47
2022-12-28T08:52:59.431Z,8.48
2022-12-28T08:55:26.861Z,8.54
2022-12-28T08:57:54.267Z,8.55
2022-12-28T09:00:21.751Z,8.59
2022-12-28T09:02:50.911Z,8.57
2022-12-28T09:05:18.497Z,8.59
2022-12-28T09:07:45.942Z,8.61
2022-12-28T09:10:13.367Z,8.56
2022-12-28T09:12:40.986Z,8.64
2022-12-28T09:15:09.190Z,8.59
2022-12-28T09:17:36.745Z,8.60
2022-12-28T09:20:06.161Z,8.66
2022-12-28T09:22:33.672Z,8.66
2022-12-28T09:25:01.199Z,8.72
2022-12-28T09:27:28.624Z,8.62
2022-12-28T09:29:56.134Z,8.60
2022-12-28T09:32:23.683Z,8.55
2022-12-28T09:34:52.182Z,8.50
2022-12-28T09:37:21.015Z,8.48
2022-12-28T09:39:48.643Z,8.50
2022-12-28T09:42:17.697Z,8.45
2022-12-28T09:44:49.346Z,8.40
2022-12-28T09:47:20.789Z,8.37
2022-12-28T09:49:52.909Z,8.34
2022-12-28T09:52:30.404Z,8.34
2022-12-28T09:55:00.909Z,8.37
2022-12-28T09:57:33.818Z,8.36
2022-12-28T10:00:01.548Z,8.41
2022-12-28T10:02:32.037Z,8.47
2022-12-28T10:04:59.647Z,8.49
2022-12-28T10:07:28.515Z,8.55
2022-12-28T10:09:56.164Z,8.52
2022-12-28T10:12:25.257Z,8.59
2022-12-28T10:14:54.143Z,8.65
2022-12-28T10:17:23.837Z,8.67
2022-12-28T10:19:51.561Z,8.72
2022-12-28T10:22:20.193Z,8.71
2022-12-28T10:24:49.262Z,8.75
2022-12-28T10:27:21.580Z,8.77
2022-12-28T10:29:49.954Z,8.90
2022-12-28T10:32:19.107Z,8.86
2022-12-28T10:34:54.693Z,8.87
2022-12-28T10:37:22.609Z,8.86
2022-12-28T10:39:54.059Z,8.93
2022-12-28T10:42:23.936Z,8.99
2022-12-28T10:44:51.636Z,8.96
2022-12-28T10:47:31.414Z,8.90
2022-12-28T10:52:56.149Z,8.82
2022-12-28T10:55:29.294Z,8.80
2022-12-28T10:58:28.158Z,8.77
2022-12-28T11:00:52.094Z,8.73
2022-12-28T11:03:20.743Z,8.65
2022-12-28T11:05:57.326Z,8.53
2022-12-28T11:08:25.078Z,8.48
2022-12-28T11:10:57.467Z,8.45
2022-12-28T11:13:27.262Z,8.46
2022-12-28T11:15:55.150Z,8.44
2022-12-28T11:18:22.980Z,8.35
2022-12-28T11:20:51.768Z,8.40
2022-12-28T11:23:20.813Z,8.40
2022-12-28T11:25:48.506Z,8.40
2022-12-28T11:28:19.094Z,8.37
2022-12-28T11:30:50.581Z,8.40
2022-12-28T11:33:26.250Z,8.41
2022-12-28T11:35:59.409Z,8.43
2022-12-28T11:38:40.461Z,8.43
2022-12-28T11:41:08.031Z,8.44
2022-12-28T11:43:41.132Z,8.48
2022-12-28T11:46:29.037Z,8.45
2022-12-28T11:49:00.686Z,8.45
2022-12-28T11:51:29.242Z,8.42
2022-12-28T11:53:58.434Z,8.47
2022-12-28T11:56:27.004Z,8.45
2022-12-28T11:59:06.745Z,8.48
2022-12-28T12:01:52.412Z,8.47
2022-12-28T12:04:41.071Z,8.48
2022-12-28T12:07:31.657Z,8.43
2022-12-28T12:10:12.684Z,8.41
2022-12-28T12:12:48.652Z,8.43
2022-12-28T12:15:20.360Z,8.42
2022-12-28T12:17:49.901Z,8.41
2022-12-28T12:20:23.829Z,8.41
2022-12-28T12:22:53.755Z,8.41
2022-12-28T12:25:24.619Z,8.47
2022-12-28T12:27:54.945Z,8.41
2022-12-28T12:30:24.503Z,8.45
2022-12-28T12:32:55.224Z,8.44
2022-12-28T12:35:23.741Z,8.40
2022-12-28T12:37:54.515Z,8.39
2022-12-28T12:40:46.295Z,8.43
2022-12-28T12:43:23.538Z,8.37
2022-12-28T12:45:56.958Z,8.42
2022-12-28T12:48:42.188Z,8.40
2022-12-28T12:51:16.091Z,8.37
2022-12-28T12:53:49.610Z,8.42
2022-12-28T12:56:31.541Z,8.38
2022-12-28T12:59:05.310Z,8.47
2022-12-28T13:01:39.254Z,8.44
2022-12-28T13:04:08.515Z,8.47
2022-12-28T13:06:36.989Z,8.40
2022-12-28T13:09:07.499Z,8.45
2022-12-28T13:11:37.458Z,8.45
2022-12-28T13:14:05.671Z,8.49
2022-12-28T13:16:34.699Z,8.50
2022-12-28T13:19:03.174Z,8.43
2022-12-28T13:21:31.470Z,8.50
2022-12-28T13:23:58.937Z,8.54
2022-12-28T13:26:28.295Z,8.51
2022-12-28T13:28:57.877Z,8.49
2022-12-28T13:31:29.452Z,8.49
2022-12-28T13:33:59.666Z,8.24
2022-12-28T13:36:27.649Z,8.51
2022-12-28T13:39:05.616Z,8.49
2022-12-28T13:41:35.196Z,8.53
2022-12-28T13:44:23.318Z,8.56
2022-12-28T13:46:53.193Z,8.63
2022-12-28T13:49:22.895Z,8.62
2022-12-28T13:51:53.462Z,8.67
2022-12-28T13:54:24.354Z,8.74
2022-12-28T13:56:54.267Z,8.75
2022-12-28T13:59:26.776Z,8.73
2022-12-28T14:01:54.618Z,8.76
2022-12-28T14:04:51.728Z,8.76
2022-12-28T14:07:14.048Z,8.80
2022-12-28T14:09:42.065Z,8.81
2022-12-28T14:12:09.715Z,8.81
2022-12-28T14:14:37.427Z,8.87
2022-12-28T14:17:05.791Z,8.89
2022-12-28T14:19:35.172Z,8.91
2022-12-28T14:22:02.654Z,8.89
2022-12-28T14:24:30.108Z,8.92
2022-12-28T14:26:58.504Z,8.88
2022-12-28T14:29:28.830Z,8.90
2022-12-28T14:31:58.475Z,8.92
2022-12-28T14:34:28.201Z,8.95
2022-12-28T14:36:57.647Z,8.93
2022-12-28T14:39:27.553Z,8.92
2022-12-28T14:41:55.758Z,8.94
2022-12-28T14:44:27.491Z,8.88
2022-12-28T14:46:55.680Z,8.88
2022-12-28T14:49:33.762Z,8.84
2022-12-28T14:52:20.000Z,8.82
2022-12-28T14:54:49.520Z,8.83
2022-12-28T14:57:24.640Z,8.80
2022-12-28T14:59:56.880Z,8.82
2022-12-28T15:02:41.396Z,8.85
2022-12-28T15:05:23.777Z,8.84
2022-12-28T15:07:51.279Z,8.85
2022-12-28T15:10:20.086Z,8.79
2022-12-28T15:12:47.605Z,8.79
2022-12-28T15:15:15.169Z,8.77
2022-12-28T15:17:42.666Z,8.77
2022-12-28T15:20:10.329Z,8.74
2022-12-28T15:22:37.804Z,8.77
2022-12-28T15:25:05.670Z,8.75
2022-12-28T15:27:34.487Z,8.74
2022-12-28T15:30:06.439Z,8.72
2022-12-28T15:32:34.707Z,8.71
2022-12-28T15:35:02.129Z,8.70
2022-12-28T15:37:29.614Z,8.66
2022-12-28T15:39:57.035Z,8.60
2022-12-28T15:42:24.502Z,8.63
2022-12-28T15:44:54.035Z,8.57
2022-12-28T15:47:23.222Z,8.55
2022-12-28T15:49:50.774Z,8.52
2022-12-28T15:52:18.231Z,8.52
2022-12-28T15:54:47.472Z,8.52
2022-12-28T15:57:15.752Z,8.44
2022-12-28T15:59:43.332Z,8.51
2022-12-28T16:02:12.792Z,8.46
2022-12-28T16:04:40.426Z,8.44
2022-12-28T16:07:08.026Z,8.42
2022-12-28T16:09:35.532Z,8.40
2022-12-28T16:12:03.197Z,8.37
2022-12-28T16:14:30.730Z,8.36
2022-12-28T16:16:58.229Z,8.34
2022-12-28T16:19:27.082Z,8.28
2022-12-28T16:21:54.546Z,8.27
2022-12-28T16:24:22.048Z,8.33
2022-12-28T16:26:49.525Z,8.31
2022-12-28T16:29:16.961Z,8.27
2022-12-28T16:31:44.597Z,8.28
2022-12-28T16:34:12.879Z,8.27
2022-12-28T16:36:42.114Z,8.27
2022-12-28T16:39:11.987Z,8.26
2022-12-28T16:41:39.623Z,8.23
2022-12-28T16:44:09.238Z,8.22
2022-12-28T16:46:36.778Z,8.17
2022-12-28T16:49:04.284Z,8.17
2022-12-28T16:51:32.239Z,8.17
2022-12-28T16:54:01.121Z,8.19
2022-12-28T16:56:28.620Z,8.15
2022-12-28T16:58:56.800Z,8.15
2022-12-28T17:01:24.798Z,8.14
2022-12-28T17:03:52.357Z,8.15
2022-12-28T17:06:19.929Z,8.13
2022-12-28T17:08:47.324Z,8.09
2022-12-28T17:11:16.119Z,8.10
2022-12-28T17:13:43.668Z,8.08
2022-12-28T17:16:11.322Z,8.11
2022-12-28T17:18:39.318Z,8.09
2022-12-28T17:21:07.387Z,8.08
2022-12-28T17:23:34.958Z,8.10
2022-12-28T17:26:02.630Z,8.08
2022-12-28T17:28:31.492Z,8.10
2022-12-28T17:31:08.825Z,8.12
2022-12-28T17:33:39.671Z,8.12
2022-12-28T17:36:08.314Z,8.13
2022-12-28T17:38:35.833Z,8.14
2022-12-28T17:41:07.221Z,8.14
2022-12-28T17:43:36.118Z,8.14
2022-12-28T17:46:04.068Z,8.15
2022-12-28T17:48:31.544Z,8.12
2022-12-28T17:50:59.843Z,8.12
2022-12-28T17:53:27.715Z,8.11
2022-12-28T17:55:55.258Z,8.11
2022-12-28T17:58:22.820Z,8.10
2022-12-28T18:00:55.329Z,8.11
2022-12-28T18:03:24.293Z,8.08
2022-12-28T18:05:55.032Z,8.09
2022-12-28T18:08:23.263Z,8.08
2022-12-28T18:10:51.050Z,8.00
2022-12-28T18:13:18.801Z,8.12
2022-12-28T18:15:47.226Z,8.11
2022-12-28T18:18:16.735Z,8.10
2022-12-28T18:20:44.349Z,8.10
2022-12-28T18:23:12.330Z,8.10
2022-12-28T18:25:39.906Z,8.15
2022-12-28T18:28:07.422Z,8.17
2022-12-28T18:30:34.947Z,8.16
2022-12-28T18:33:02.482Z,8.15
2022-12-28T18:35:31.380Z,8.18
2022-12-28T18:37:58.855Z,8.23
2022-12-28T18:40:26.342Z,8.24
2022-12-28T18:42:54.121Z,8.26
2022-12-28T18:45:21.607Z,8.23
2022-12-28T18:47:49.133Z,8.25
2022-12-28T18:50:16.770Z,8.28
2022-12-28T18:52:48.320Z,8.28
2022-12-28T18:55:15.894Z,8.28
2022-12-28T18:57:43.496Z,8.29
2022-12-28T19:00:11.635Z,8.33
2022-12-28T19:02:39.236Z,8.35
2022-12-28T19:05:06.960Z,8.37
2022-12-28T19:07:34.434Z,8.43
2022-12-28T19:10:13.411Z,8.43
2022-12-28T19:12:42.058Z,8.45
2022-12-28T19:15:10.546Z,8.49
2022-12-28T19:17:37.952Z,8.51
2022-12-28T19:20:05.920Z,8.56
2022-12-28T19:22:33.502Z,8.61
2022-12-28T19:25:00.984Z,8.61
2022-12-28T19:27:29.777Z,8.66
2022-12-28T19:29:57.336Z,8.64
2022-12-28T19:32:24.787Z,8.66
2022-12-28T19:34:53.486Z,8.69
2022-12-28T19:37:21.650Z,8.68
2022-12-28T19:39:53.377Z,8.69
2022-12-28T19:42:23.730Z,8.71
2022-12-28T19:44:52.560Z,8.75
2022-12-28T19:47:20.028Z,8.75
2022-12-28T19:49:47.620Z,8.72
2022-12-28T19:52:15.109Z,8.76
2022-12-28T19:54:42.798Z,8.80
2022-12-28T19:57:10.257Z,8.87
2022-12-28T19:59:37.725Z,8.85
2022-12-28T20:02:06.698Z,8.86
2022-12-28T20:04:34.352Z,8.90
2022-12-28T20:07:01.856Z,8.90
2022-12-28T20:09:29.385Z,8.94
2022-12-28T20:11:56.834Z,8.95
2022-12-28T20:14:25.291Z,8.99
2022-12-28T20:16:52.962Z,9.01
2022-12-28T20:19:21.791Z,9.01
2022-12-28T20:21:50.413Z,8.98
2022-12-28T20:24:21.357Z,9.01
2022-12-28T20:26:48.869Z,9.05
2022-12-28T20:29:16.689Z,9.12
2022-12-28T20:31:44.502Z,9.12
2022-12-28T20:34:12.051Z,9.13
2022-12-28T20:36:40.902Z,9.14
2022-12-28T20:39:08.345Z,9.16
2022-12-28T20:41:53.651Z,9.19
2022-12-28T20:44:23.828Z,9.24
2022-12-28T20:46:51.422Z,9.27
2022-12-28T20:49:18.937Z,9.34
2022-12-28T20:51:47.883Z,9.39
2022-12-28T20:54:15.330Z,9.46
2022-12-28T20:56:43.849Z,9.42
2022-12-28T20:59:13.823Z,9.50
2022-12-28T21:01:41.868Z,9.52
2022-12-28T21:04:09.938Z,9.52
2022-12-28T21:06:37.589Z,9.53
2022-12-28T21:09:06.555Z,9.55
2022-12-28T21:11:34.034Z,9.55
2022-12-28T21:14:01.559Z,9.57
2022-12-28T21:16:29.254Z,9.58
2022-12-28T21:18:56.810Z,9.61
2022-12-28T21:21:24.247Z,9.60
2022-12-28T21:23:52.649Z,9.58
2022-12-28T21:26:21.936Z,9.64
2022-12-28T21:28:49.741Z,9.78
2022-12-28T21:31:17.210Z,9.77
2022-12-28T21:33:44.735Z,9.77
2022-12-28T21:36:14.541Z,9.75
2022-12-28T21:38:42.842Z,9.70
2022-12-28T21:41:11.367Z,9.74
2022-12-28T21:43:40.239Z,9.76
2022-12-28T21:46:08.678Z,9.82
2022-12-28T21:48:37.175Z,9.79
2022-12-28T21:51:05.616Z,9.83
2022-12-28T21:53:33.388Z,9.76
2022-12-28T21:56:00.838Z,9.77
2022-12-28T21:58:28.341Z,9.75
2022-12-28T22:01:18.172Z,9.72
2022-12-28T22:04:03.330Z,9.69
2022-12-28T22:06:30.830Z,9.64
2022-12-28T22:09:15.806Z,9.74
2022-12-28T22:12:00.721Z,9.79
2022-12-28T22:14:28.227Z,9.79
2022-12-28T22:16:56.262Z,9.76
2022-12-28T22:19:23.868Z,9.72
2022-12-28T22:21:51.454Z,9.75
2022-12-28T22:24:18.948Z,9.70
2022-12-28T22:26:46.505Z,9.69
2022-12-28T22:29:14.047Z,9.68
2022-12-28T22:31:41.566Z,9.68
2022-12-28T22:34:10.384Z,9.60
2022-12-28T22:36:37.870Z,9.61
2022-12-28T22:39:05.331Z,9.61
2022-12-28T22:41:32.861Z,9.61
2022-12-28T22:44:00.309Z,9.62
2022-12-28T22:46:27.977Z,9.64
2022-12-28T22:48:55.540Z,9.64
2022-12-28T22:51:24.390Z,9.63
2022-12-28T22:53:51.921Z,9.68
2022-12-28T22:56:20.922Z,9.65
2022-12-28T22:58:49.193Z,9.64
2022-12-28T23:01:17.748Z,9.61
2022-12-28T23:03:46.956Z,9.60
2022-12-28T23:06:15.394Z,9.62
2022-12-28T23:08:44.333Z,9.66
2022-12-28T23:11:36.405Z,9.64
2022-12-28T23:14:18.831Z,9.70
2022-12-28T23:16:46.450Z,9.71
2022-12-28T23:19:31.632Z,9.71
2022-12-28T23:22:16.699Z,9.72
2022-12-28T23:25:02.748Z,9.70
2022-12-28T23:27:32.454Z,9.78
2022-12-28T23:29:59.918Z,9.84
2022-12-28T23:32:27.459Z,9.84
2022-12-28T23:34:55.015Z,9.89
2022-12-28T23:37:22.508Z,9.90
2022-12-28T23:39:51.396Z,9.88
2022-12-28T23:42:18.795Z,9.86
2022-12-28T23:44:48.463Z,9.85
2022-12-28T23:47:16.441Z,9.90
2022-12-28T23:49:44.018Z,9.69
2022-12-28T23:52:11.505Z,9.96
2022-12-28T23:54:39.381Z,9.93
2022-12-28T23:57:08.230Z,9.96
2022-12-28T23:59:35.709Z,9.98
